Terminal Aerodrome Forecast
Issued by NWS Twin Cities, MN

Home | Current Version | Previous Version | Graphics & Text | Print | Product List | Glossary On
Versions: 1 2 3 4 5 6 7 8 9 10 11 12 13 14 15 16 17 18
212
FTUS43 KMPX 282056 AAA
TAFEAU
TAF AMD
KEAU 282056Z 2821/2918 02012G18KT P6SM BKN035
     FM290100 01006KT P6SM BKN050
     FM290600 04003KT P6SM SCT050=

USA.gov is the U.S. government's official web portal to all federal, state and local government web resources and services.